• Join FlightAware (Why Join?)
  • Login
  • US Flag 
01:47PM EDT


 

Airport Tracker/Info


-or-


 

Live Flight TrackerFlight Track Log ✈ AWE1940 ✈ 24-Apr-2013 ✈ KCLT - KALB

Flight Track Log - Related Links

Times and Time Zones

All times are in EDT time to prevent confusion due to time zone crossing. See the AWE1940 flight status page for this flight to view local times or setup timezone preferences in your user account.

Time Position Orientation Groundspeed Altitude Reporting Facility
EDT Latitude Longitude Course Direction KTS MPH feet Rate Location/Type
10:33PM 35.1928 -80.9356 72° East 165 190 1,800  Level Atlanta Center
10:34PM 35.1317 -80.9075 159° South 232 267 4,300 1,920 Climbing Atlanta Center
10:35PM 35.1516 -80.5990 29° Northeast  Level FlightAware Approximate
10:35PM 35.0978 -80.8047 112° Southeast 323 372 6,800  Level Atlanta Center
10:36PM 35.2604 -80.5235 30° Northeast  Level FlightAware Approximate
10:36PM 35.1356 -80.7319 58° Northeast 339 390 9,200  Level Atlanta Center
10:37PM 35.3425 -80.4319 72° East  Level FlightAware Approximate
10:37PM 35.1869 -80.6308 58° Northeast 339 390 11,300  Level Atlanta Center
10:38PM 35.3810 -80.2859 72° East  Level FlightAware Approximate
10:38PM 35.2425 -80.5269 57° Northeast 357 411 13,600  Level Atlanta Center
10:39PM 35.2936 -80.4228 59° Northeast 373 429 15,300 1,860 Climbing Atlanta Center
10:41PM 35.4431 -80.1022 60° Northeast 421 484 20,100 1,860 Climbing Washington Center
10:42PM 35.4792 -79.9714 71° East 437 503 21,800 1,680 Climbing Washington Center
10:43PM 35.5139 -79.8203 74° East 442 509 23,500 1,500 Climbing Washington Center
10:44PM 35.5544 -79.6692 72° East 457 526 24,900 1,440 Climbing Washington Center
10:45PM 35.6000 -79.4953 72° East 475 547 26,400 1,020 Climbing Washington Center
10:46PM 35.6439 -79.3594 68° East 475 547 27,000 300 Climbing Washington Center
10:47PM 35.7050 -79.2064 64° Northeast 475 547 27,000  Level Washington Center
10:48PM 35.7678 -79.0581 62° Northeast 480 552 27,000  Level Washington Center
10:49PM 35.8331 -78.8919 64° Northeast 485 558 27,000 300 Level Washington Center
10:50PM 35.8956 -78.7406 63° Northeast 485 558 27,700 900 Climbing Washington Center
10:51PM 35.9683 -78.5947 58° Northeast 485 558 28,900 1,080 Climbing Washington Center
10:52PM 36.0408 -78.4433 59° Northeast 496 571 29,900 1,080 Climbing Washington Center
10:53PM 36.1131 -78.2942 59° Northeast 502 578 31,100 1,200 Climbing Washington Center
10:54PM 36.1853 -78.1422 59° Northeast 502 578 32,300 1,200 Climbing Washington Center
10:55PM 36.2572 -77.9928 59° Northeast 502 578 33,600 1,140 Climbing Washington Center
10:56PM 36.3289 -77.8453 59° Northeast 502 578 34,600 1,020 Climbing Washington Center
10:57PM 36.3983 -77.6925 61° Northeast 502 578 35,700 960 Climbing Washington Center
10:58PM 36.4592 -77.5597 60° Northeast 496 571 36,600 600 Climbing Washington Center
10:59PM 36.5283 -77.4117 60° Northeast 491 565 37,000 180 Climbing Washington Center
11:00PM 36.5972 -77.2658 59° Northeast 491 565 37,000  Level Washington Center
11:01PM 36.6658 -77.1144 60° Northeast 491 565 37,000  Level Washington Center
11:02PM 36.7508 -76.9839 51° Northeast 491 565 37,000  Level Washington Center
11:03PM 36.8711 -76.8719 37° Northeast 478 550 37,000  Level Washington Center
11:04PM 36.9786 -76.7722 37° Northeast 478 550 37,000  Level Washington Center
11:05PM 37.0878 -76.6750 35° Northeast 478 550 37,000  Level Washington Center
11:06PM 37.1953 -76.5747 37° Northeast 478 550 37,000  Level Washington Center
11:07PM 37.3044 -76.4744 36° Northeast 483 556 37,000  Level Washington Center
11:08PM 37.4136 -76.3789 35° Northeast 483 556 37,000  Level Washington Center
11:09PM 37.5267 -76.2911 32° Northeast 483 556 37,000  Level Washington Center
11:10PM 37.6336 -76.2158 29° Northeast 478 550 37,000  Level Washington Center
11:11PM 37.7528 -76.1408 26° Northeast 478 550 37,000  Level Washington Center
11:12PM 37.8678 -76.0494 32° Northeast 472 543 37,000  Level Washington Center
11:13PM 37.9808 -75.9658 30° Northeast 472 543 37,000  Level Washington Center
11:14PM 38.0997 -75.8794 30° Northeast 478 550 37,000  Level Washington Center
11:15PM 38.2147 -75.7978 29° Northeast 478 550 37,000  Level Washington Center
11:16PM 38.3378 -75.7133 28° Northeast 485 558 37,000  Level Washington Center
11:17PM 38.4547 -75.6314 29° Northeast 485 558 37,000  Level Washington Center
11:18PM 38.5714 -75.5439 30° Northeast 485 558 37,000 -60 Level Washington Center
11:19PM 38.6900 -75.4586 29° Northeast 480 552 36,900 -60 Descending Washington Center
11:20PM 38.8089 -75.3758 28° Northeast 480 552 36,900  Level Washington Center
11:21PM 38.9253 -75.2900 30° Northeast 480 552 36,900  Level Washington Center
11:22PM 39.0419 -75.1986 31° Northeast 480 552 36,900  Level Washington Center
11:23PM 39.1603 -75.1125 29° Northeast 485 558 37,000  Climbing Washington Center
11:24PM 39.2786 -75.0231 30° Northeast 485 558 37,000  Level Washington Center
11:25PM 39.3950 -74.9364 30° Northeast 480 552 37,000  Level Washington Center
11:26PM 39.5133 -74.8464 30° Northeast 480 552 37,000 -300 Level Washington Center
11:29PM 39.7725 -74.6494 30° Northeast 487 560 36,200 -600 Descending New York Center
11:30PM 39.8814 -74.5689 30° Northeast 492 566 35,300 -660 Descending New York Center
11:31PM 40.0011 -74.4750 31° Northeast 498 573 34,900 -420 Descending New York Center
11:32PM 40.1208 -74.3839 30° Northeast 498 573 34,500 -720 Descending New York Center
11:33PM 40.2425 -74.2922 30° Northeast 498 573 33,500 -1,020 Descending New York Center
11:34PM 40.3639 -74.1978 31° Northeast 503 579 32,500 -1,860 Descending New York Center
11:35PM 40.4833 -74.1056 30° Northeast 508 585 29,900 -2,580 Descending New York Center
11:36PM 40.6047 -74.0075 32° Northeast 508 585 27,300 -2,400 Descending New York Center
11:37PM 40.7219 -73.9172 30° Northeast 496 571 25,100 -1,320 Descending New York Center
11:39PM 40.9389 -73.6847 39° Northeast 458 527 23,100 -660 Descending Boston Center
11:40PM 41.0317 -73.5711 43° Northeast 453 521 23,000 -480 Descending Boston Center
11:41PM 41.1306 -73.4681 38° Northeast 448 516 22,200 -900 Descending Boston Center
11:42PM 41.2417 -73.4089 22° Northeast 435 501 21,300 -1,260 Descending Boston Center
11:43PM 41.3547 -73.3553 20° North 422 486 19,700 -1,200 Descending Boston Center
11:44PM 41.4714 -73.3461 North 388 447 19,000 -360 Descending Boston Center
11:45PM 41.5669 -73.3722 348° North 381 438 19,000 -540 Level Boston Center
11:46PM 41.6814 -73.4075 347° North 389 448 18,000 -1,620 Descending Boston Center
11:47PM 41.7894 -73.4369 349° North 389 448 15,800 -2,040 Descending Boston Center
11:47PM 41.8539 -73.4575 347° North 384 442 14,800 -1,440 Descending Boston Center
11:48PM 41.8894 -73.4636 353° North 384 442 14,400 -1,740 Descending Boston Center
11:48PM 41.9225 -73.4725 349° North 375 432 13,600 -1,740 Descending Boston Center
11:49PM 41.9892 -73.4903 349° North 363 418 12,700 -1,380 Descending Boston Center
11:49PM 42.0203 -73.4992 348° North 353 406 12,200 -1,620 Descending Boston Center
11:50PM 42.0806 -73.5225 344° North 352 405 11,100 -1,200 Descending Boston Center
11:50PM 42.1117 -73.5258 355° North 337 388 11,000 -120 Descending Boston Center
11:51PM 42.1575 -73.5322 354° North 346 398 11,000 -120 Level Boston Center
11:51PM 42.2097 -73.5389 355° North 345 397 10,900 -600 Descending Boston Center
11:52PM 42.2700 -73.5428 357° North 346 398 10,400 -1,140 Descending Boston Center
11:52PM 42.2992 -73.5433 359° North 328 377 9,800 -1,500 Descending Boston Center
11:53PM 42.3553 -73.5469 357° North 321 369 8,900 -1,380 Descending Boston Center
11:53PM 42.3825 -73.5531 351° North 302 348 8,400 -1,320 Descending Boston Center
11:54PM 42.4281 -73.5708 344° North 297 342 7,600 -1,380 Descending Boston Center
11:54PM 42.4675 -73.5856 345° North 283 326 7,000 -1,500 Descending Boston Center
11:55PM 42.5111 -73.5978 348° North 280 322 6,100 -1,380 Descending Boston Center
11:55PM 42.5300 -73.6064 341° North 276 318 5,800 -1,560 Descending Boston Center
11:56PM 42.6025 -73.6333 345° North 270 311 4,100 -1,380 Descending Boston Center
11:57PM 42.6794 -73.6631 344° North 267 307 3,000 -600 Descending Boston Center
11:58PM 42.7436 -73.6869 345° North 228 262 3,000  Level Boston Center
11:59PM 42.8039 -73.7050 348° North 215 247 3,000  Level Boston Center
12:00AM 42.8622 -73.7147 353° North 206 237 3,000 -540 Level Boston Center
12:01AM 42.9100 -73.7214 354° North 179 206 2,000 -120 Descending Boston Center
12:02AM 42.9503 -73.6742 41° Northeast 233 268 2,800 540 Climbing Boston Center
12:03AM 42.9069 -73.6136 134° Southeast 214 246 3,100 120 Climbing Boston Center
12:04AM 42.8594 -73.5786 152° Southeast 184 212 3,100  Level Boston Center
12:05AM 42.8158 -73.5581 161° South 163 188 3,100  Level Boston Center
12:06AM 42.7742 -73.5686 191° South 159 183 3,100 -120 Level Boston Center
12:07AM 42.7528 -73.6164 239° Southwest 157 181 2,900 -600 Descending Boston Center
12:08AM 42.7542 -73.6700 272° West 140 161 2,000 -840 Descending Boston Center
12:09AM 42.7494 -73.7208 263° West 132 152 1,300 -720 Descending Boston Center